Time;durP1;ratioP1;P1;durP2;ratioP2;P2;SDS_P1;SDS_P2;PMS_P1;PMS_P2;Temp;Humidity;BMP_temperature;BMP_pressure;BME280_temperature;BME280_humidity;BME280_pressure;Samples;Min_cycle;Max_cycle;Signal;HPM_P1;HPM_P2
2022/03/16 00:02:22;;;;;;;56.67;36.05;;;7.00;99.90;;;;;;5096094;28;20381;-59
2022/03/16 00:04:51;;;;;;;57.83;35.30;;;7.00;99.90;;;;;;5094584;28;20496;-58
2022/03/16 00:07:18;;;;;;;67.35;37.20;;;7.00;99.90;;;;;;5095806;28;20040;-59
2022/03/16 00:09:44;;;;;;;71.15;35.78;;;6.90;99.90;;;;;;5095591;28;20097;-58
2022/03/16 00:12:11;;;;;;;57.13;35.22;;;6.90;99.90;;;;;;5095559;28;20036;-58
2022/03/16 00:14:36;;;;;;;62.35;36.08;;;6.80;99.90;;;;;;5095529;28;20039;-58
2022/03/16 00:17:03;;;;;;;61.50;35.67;;;6.90;99.90;;;;;;5095362;28;20039;-58
2022/03/16 00:19:29;;;;;;;61.33;35.92;;;6.90;99.90;;;;;;5095479;28;20054;-58
2022/03/16 00:21:56;;;;;;;57.47;35.15;;;6.80;99.90;;;;;;5095558;28;20044;-58
2022/03/16 00:24:22;;;;;;;61.00;36.22;;;6.80;99.90;;;;;;5095421;28;20040;-58
2022/03/16 00:26:47;;;;;;;59.45;36.33;;;6.80;99.90;;;;;;5095234;28;20043;-58
2022/03/16 00:29:13;;;;;;;60.80;35.67;;;6.80;99.90;;;;;;5095099;28;20071;-58
2022/03/16 00:31:39;;;;;;;63.50;36.00;;;6.70;99.90;;;;;;5095141;28;20036;-59
2022/03/16 00:34:04;;;;;;;67.50;39.20;;;6.70;99.90;;;;;;5095302;28;20032;-58
2022/03/16 00:36:30;;;;;;;64.47;37.33;;;6.70;99.90;;;;;;5093655;28;20055;-59
2022/03/16 00:38:55;;;;;;;58.60;34.92;;;6.70;99.90;;;;;;5095408;28;20822;-58
2022/03/16 00:41:21;;;;;;;60.85;35.38;;;6.70;99.90;;;;;;5095086;28;20504;-59
2022/03/16 00:43:47;;;;;;;57.90;35.75;;;6.60;99.90;;;;;;5094920;28;20039;-58
2022/03/16 00:46:13;;;;;;;62.05;36.95;;;6.60;99.90;;;;;;5094825;28;20125;-58
2022/03/16 00:48:38;;;;;;;63.13;37.38;;;6.60;99.90;;;;;;5094974;28;20040;-58
2022/03/16 00:51:04;;;;;;;62.92;37.13;;;6.50;99.90;;;;;;5094811;28;20081;-58
2022/03/16 00:53:34;;;;;;;67.82;38.13;;;6.50;99.90;;;;;;5094608;28;20031;-58
2022/03/16 00:56:03;;;;;;;70.00;37.63;;;6.60;99.90;;;;;;5094742;28;20044;-59
2022/03/16 00:58:29;;;;;;;65.18;37.42;;;6.50;99.90;;;;;;5094657;28;20032;-58
2022/03/16 01:00:55;;;;;;;66.45;36.85;;;6.50;99.90;;;;;;5094452;28;20036;-59
2022/03/16 01:03:21;;;;;;;59.80;36.65;;;6.40;99.90;;;;;;5093439;28;20073;-59
2022/03/16 01:05:46;;;;;;;68.97;36.35;;;6.40;99.90;;;;;;5094478;28;20517;-58
2022/03/16 01:08:12;;;;;;;65.63;37.95;;;6.40;99.90;;;;;;5094560;28;20439;-58
2022/03/16 01:10:39;;;;;;;65.13;37.28;;;6.40;99.90;;;;;;5094456;28;20101;-58
2022/03/16 01:13:05;;;;;;;66.95;35.75;;;6.40;99.90;;;;;;5094140;28;20425;-59
2022/03/16 01:15:30;;;;;;;68.30;37.90;;;6.30;99.90;;;;;;5094331;28;20035;-58
2022/03/16 01:17:56;;;;;;;65.65;37.85;;;6.30;99.90;;;;;;5094431;28;20039;-58
2022/03/16 01:20:22;;;;;;;64.30;37.45;;;6.30;99.90;;;;;;5094646;28;20036;-59
2022/03/16 01:22:47;;;;;;;63.10;37.03;;;6.30;99.90;;;;;;5094078;28;20046;-58
2022/03/16 01:25:13;;;;;;;64.70;36.78;;;6.30;99.90;;;;;;5094241;28;20093;-58
2022/03/16 01:27:39;;;;;;;61.35;36.38;;;6.30;99.90;;;;;;5093907;28;20032;-59
2022/03/16 01:30:05;;;;;;;67.30;37.70;;;6.30;99.90;;;;;;5094235;28;20061;-58
2022/03/16 01:32:31;;;;;;;62.05;36.40;;;6.30;99.90;;;;;;5092956;28;20394;-58
2022/03/16 01:34:57;;;;;;;53.80;34.22;;;6.30;99.90;;;;;;5094373;28;20036;-58
2022/03/16 01:37:22;;;;;;;57.88;34.72;;;6.30;99.90;;;;;;5093908;28;20522;-58
2022/03/16 01:39:48;;;;;;;59.88;34.67;;;6.30;99.90;;;;;;5093929;28;20110;-58
2022/03/16 01:42:14;;;;;;;59.88;35.70;;;6.30;99.90;;;;;;5093765;28;20397;-59
2022/03/16 01:44:47;;;;;;;65.88;35.72;;;6.20;99.90;;;;;;5093932;28;20470;-58
2022/03/16 01:47:15;;;;;;;52.90;33.25;;;6.10;99.90;;;;;;5093947;28;20067;-58
2022/03/16 01:49:41;;;;;;;58.08;33.50;;;6.20;99.90;;;;;;5093682;28;20050;-59
2022/03/16 01:52:09;;;;;;;57.15;32.47;;;6.10;99.90;;;;;;5093671;28;20040;-58
2022/03/16 01:54:35;;;;;;;52.53;32.20;;;6.10;99.90;;;;;;5093531;28;20145;-58
2022/03/16 01:57:02;;;;;;;52.97;33.30;;;6.10;99.90;;;;;;5093517;28;20085;-58
2022/03/16 01:59:30;;;;;;;54.97;32.13;;;6.00;99.90;;;;;;5093725;28;20039;-58
2022/03/16 02:01:55;;;;;;;50.00;29.63;;;6.00;99.90;;;;;;5093642;28;20035;-58
2022/03/16 02:04:21;;;;;;;47.08;30.17;;;5.90;99.90;;;;;;5093552;28;20085;-59
2022/03/16 02:06:47;;;;;;;45.67;29.38;;;5.90;99.90;;;;;;5093759;28;20132;-58
2022/03/16 02:09:13;;;;;;;48.60;29.50;;;5.70;99.90;;;;;;5093717;28;20047;-58
2022/03/16 02:11:38;;;;;;;48.42;28.33;;;5.70;99.90;;;;;;5093072;28;20394;-58
2022/03/16 02:14:04;;;;;;;44.78;29.33;;;5.70;99.90;;;;;;5093619;28;20036;-59
2022/03/16 02:16:34;;;;;;;47.92;30.05;;;5.60;99.90;;;;;;5093097;28;20039;-59
2022/03/16 02:19:00;;;;;;;52.15;30.50;;;5.60;99.90;;;;;;5094001;28;20036;-59
2022/03/16 02:21:27;;;;;;;46.33;29.38;;;5.60;99.90;;;;;;5092992;28;20047;-58
2022/03/16 02:23:53;;;;;;;51.55;31.83;;;5.60;99.90;;;;;;5093371;28;20101;-58
2022/03/16 02:26:23;;;;;;;45.70;29.35;;;5.50;99.90;;;;;;5093175;28;20036;-58
2022/03/16 02:28:49;;;;;;;51.17;29.75;;;5.50;99.90;;;;;;5093468;28;20044;-58
2022/03/16 02:31:17;;;;;;;48.13;30.05;;;5.50;99.90;;;;;;5092798;28;20224;-58
2022/03/16 02:33:43;;;;;;;45.55;29.45;;;5.50;99.90;;;;;;5093062;28;20043;-59
2022/03/16 02:36:09;;;;;;;48.75;31.42;;;5.50;99.90;;;;;;5092712;28;20051;-59
2022/03/16 02:38:35;;;;;;;54.20;32.38;;;5.40;99.90;;;;;;5092698;28;20447;-59
2022/03/16 02:41:01;;;;;;;51.55;30.20;;;5.40;99.90;;;;;;5092726;28;20119;-58
2022/03/16 02:43:27;;;;;;;56.85;31.83;;;5.30;99.90;;;;;;5092788;28;20119;-58
2022/03/16 02:45:54;;;;;;;48.63;31.10;;;5.30;99.90;;;;;;5092659;28;20055;-58
2022/03/16 02:48:20;;;;;;;50.75;30.85;;;5.40;99.90;;;;;;5092711;28;20089;-58
2022/03/16 02:50:47;;;;;;;52.53;31.42;;;5.40;99.90;;;;;;5092464;28;20043;-58
2022/03/16 02:53:12;;;;;;;50.20;31.15;;;5.30;99.90;;;;;;5092417;28;20032;-59
2022/03/16 02:55:38;;;;;;;56.08;30.50;;;5.30;99.90;;;;;;5092589;28;20390;-58
2022/03/16 02:58:04;;;;;;;52.83;31.60;;;5.20;99.90;;;;;;5092605;28;20146;-58
2022/03/16 03:00:29;;;;;;;56.70;33.65;;;5.20;99.90;;;;;;5092274;28;20119;-58
2022/03/16 03:02:55;;;;;;;55.92;33.00;;;5.20;99.90;;;;;;5092363;28;20039;-59
2022/03/16 03:05:22;;;;;;;51.63;32.17;;;5.20;99.90;;;;;;5092771;28;20046;-58
2022/03/16 03:07:48;;;;;;;56.38;34.45;;;5.20;99.90;;;;;;5092007;28;20036;-58
2022/03/16 03:10:13;;;;;;;52.70;32.35;;;5.20;99.90;;;;;;5092286;28;20501;-59
2022/03/16 03:12:39;;;;;;;50.45;31.98;;;5.20;99.90;;;;;;5092353;28;20043;-58
2022/03/16 03:15:09;;;;;;;54.10;31.65;;;5.20;99.90;;;;;;5092154;28;20081;-58
2022/03/16 03:17:35;;;;;;;53.58;33.78;;;5.20;99.90;;;;;;5092119;28;20417;-58
2022/03/16 03:20:01;;;;;;;58.85;34.10;;;5.20;99.90;;;;;;5091854;28;20117;-59
2022/03/16 03:22:28;;;;;;;59.30;33.65;;;5.20;99.90;;;;;;5091975;28;20077;-59
2022/03/16 03:24:54;;;;;;;53.13;32.95;;;5.20;99.90;;;;;;5091915;28;20553;-59
2022/03/16 03:27:20;;;;;;;65.28;35.25;;;5.20;99.90;;;;;;5091515;28;20044;-59
2022/03/16 03:29:46;;;;;;;60.05;34.75;;;5.10;99.90;;;;;;5090676;28;20404;-59
2022/03/16 03:32:12;;;;;;;56.03;32.90;;;5.20;99.90;;;;;;5092010;28;20040;-59
2022/03/16 03:34:37;;;;;;;62.10;33.97;;;5.10;99.90;;;;;;5092083;28;20126;-58
2022/03/16 03:37:03;;;;;;;58.00;33.38;;;5.20;99.90;;;;;;5091770;28;20591;-59
2022/03/16 03:39:29;;;;;;;53.55;34.05;;;5.20;99.90;;;;;;5092024;28;20040;-58
2022/03/16 03:41:54;;;;;;;62.97;34.55;;;5.10;99.90;;;;;;5091798;28;20040;-59
2022/03/16 03:44:20;;;;;;;55.13;33.53;;;5.10;99.90;;;;;;5091890;28;20093;-59
2022/03/16 03:46:45;;;;;;;58.90;35.08;;;5.10;99.90;;;;;;5091828;28;20119;-59
2022/03/16 03:49:11;;;;;;;63.03;34.95;;;5.00;99.90;;;;;;5091692;28;20036;-59
2022/03/16 03:51:37;;;;;;;54.97;32.47;;;5.00;99.90;;;;;;5091502;28;20443;-59
2022/03/16 03:54:03;;;;;;;54.70;32.38;;;5.00;99.90;;;;;;5091726;28;20061;-58
2022/03/16 03:56:28;;;;;;;53.75;33.00;;;5.00;99.90;;;;;;5091663;28;20032;-58
2022/03/16 03:58:54;;;;;;;54.22;33.17;;;4.90;99.90;;;;;;5091562;28;20122;-58
2022/03/16 04:01:19;;;;;;;64.07;34.92;;;5.00;99.90;;;;;;5091607;28;20116;-58
2022/03/16 04:03:46;;;;;;;63.70;34.55;;;4.90;99.90;;;;;;5091629;28;20032;-59
2022/03/16 04:06:12;;;;;;;63.28;34.88;;;4.90;99.90;;;;;;5091510;28;20040;-59
2022/03/16 04:08:38;;;;;;;54.80;32.95;;;4.80;99.90;;;;;;5091521;28;20040;-58
2022/03/16 04:11:03;;;;;;;65.57;36.95;;;4.90;99.90;;;;;;5091615;28;20477;-58
2022/03/16 04:13:29;;;;;;;71.97;37.88;;;4.90;99.90;;;;;;5092064;28;20039;-59
2022/03/16 04:15:55;;;;;;;65.82;36.63;;;4.90;99.90;;;;;;5091643;28;20142;-58
2022/03/16 04:18:20;;;;;;;64.55;36.05;;;4.90;99.90;;;;;;5091519;28;20463;-58
2022/03/16 04:20:46;;;;;;;60.50;35.75;;;4.90;99.90;;;;;;5091376;28;20044;-59
2022/03/16 04:23:11;;;;;;;65.55;35.53;;;4.90;99.90;;;;;;5091540;28;20028;-59
2022/03/16 04:25:37;;;;;;;60.47;34.03;;;4.90;99.90;;;;;;5091422;28;20485;-58
2022/03/16 04:28:03;;;;;;;69.55;37.75;;;4.90;99.90;;;;;;5091491;28;20036;-58
2022/03/16 04:30:28;;;;;;;64.53;37.00;;;4.90;99.90;;;;;;5091324;28;20043;-58
2022/03/16 04:32:54;;;;;;;77.78;39.22;;;4.80;99.90;;;;;;5091189;28;20599;-59
2022/03/16 04:35:20;;;;;;;67.10;37.92;;;4.80;99.90;;;;;;5091047;28;20129;-59
2022/03/16 04:37:49;;;;;;;63.78;36.22;;;4.80;99.90;;;;;;5092638;28;20095;-59
2022/03/16 04:40:15;;;;;;;72.82;38.05;;;4.90;99.90;;;;;;5095460;28;20075;-59
2022/03/16 04:42:41;;;;;;;76.63;38.58;;;4.80;99.90;;;;;;5094974;28;20125;-59
2022/03/16 04:45:07;;;;;;;65.20;36.72;;;4.80;99.90;;;;;;5095011;28;20067;-59
2022/03/16 04:47:32;;;;;;;73.28;38.45;;;4.80;99.90;;;;;;5094933;28;20064;-59
2022/03/16 04:49:58;;;;;;;72.40;37.58;;;4.80;99.90;;;;;;5094803;28;20501;-58
2022/03/16 04:52:25;;;;;;;68.75;38.33;;;4.70;99.90;;;;;;5094564;28;20048;-59
2022/03/16 04:54:50;;;;;;;64.57;36.08;;;4.80;99.90;;;;;;5094956;28;20107;-58
2022/03/16 04:57:16;;;;;;;77.35;38.42;;;4.80;99.90;;;;;;5094863;28;20169;-59
2022/03/16 04:59:42;;;;;;;67.63;36.58;;;4.80;99.90;;;;;;5094960;28;20036;-58
2022/03/16 05:02:07;;;;;;;70.53;38.45;;;4.80;99.90;;;;;;5094750;28;20086;-58
2022/03/16 05:04:33;;;;;;;61.25;35.63;;;4.80;99.90;;;;;;5094478;28;20058;-59
2022/03/16 05:06:58;;;;;;;65.15;36.13;;;4.80;99.90;;;;;;5093239;28;20127;-59
2022/03/16 05:09:24;;;;;;;71.18;36.83;;;4.80;99.90;;;;;;5094334;28;20039;-58
2022/03/16 05:11:50;;;;;;;66.28;37.20;;;4.80;99.90;;;;;;5092772;28;20048;-59
2022/03/16 05:14:15;;;;;;;74.00;39.20;;;4.90;99.90;;;;;;5094574;28;20098;-59
2022/03/16 05:16:41;;;;;;;67.13;39.08;;;4.80;99.90;;;;;;5094272;28;20040;-59
2022/03/16 05:19:06;;;;;;;69.90;37.85;;;4.80;99.90;;;;;;5094361;28;20415;-58
2022/03/16 05:21:32;;;;;;;69.97;37.72;;;4.90;99.90;;;;;;5094503;28;20085;-58
2022/03/16 05:23:58;;;;;;;75.30;39.13;;;4.90;99.90;;;;;;5094168;28;20036;-59
2022/03/16 05:26:23;;;;;;;73.03;38.33;;;4.80;99.90;;;;;;5094167;28;20036;-58
2022/03/16 05:28:49;;;;;;;70.70;37.35;;;4.80;99.90;;;;;;5094170;28;20032;-59
2022/03/16 05:31:15;;;;;;;76.78;39.15;;;4.80;99.90;;;;;;5093948;28;20044;-59
2022/03/16 05:33:40;;;;;;;75.88;38.25;;;4.70;99.90;;;;;;5094034;28;20184;-59
2022/03/16 05:36:06;;;;;;;75.30;37.75;;;4.80;99.90;;;;;;5093958;28;20118;-59
2022/03/16 05:38:32;;;;;;;72.97;38.83;;;4.80;99.90;;;;;;5094307;28;20047;-59
2022/03/16 05:40:57;;;;;;;68.72;36.15;;;4.70;99.90;;;;;;5093955;28;20032;-59
2022/03/16 05:43:23;;;;;;;69.80;38.20;;;4.80;99.90;;;;;;5094004;28;20078;-58
2022/03/16 05:45:51;;;;;;;75.28;40.10;;;4.80;99.90;;;;;;5093739;28;20088;-59
2022/03/16 05:48:17;;;;;;;74.13;38.23;;;4.90;99.90;;;;;;5094376;28;20059;-59
2022/03/16 05:50:45;;;;;;;68.13;38.55;;;4.80;99.90;;;;;;5093183;28;20470;-59
2022/03/16 05:53:11;;;;;;;72.55;38.78;;;4.80;99.90;;;;;;5093784;28;20119;-59
2022/03/16 05:55:37;;;;;;;71.32;36.97;;;4.80;99.90;;;;;;5093988;28;20028;-59
2022/03/16 05:58:02;;;;;;;79.13;38.95;;;4.90;99.90;;;;;;5093764;28;20032;-58
2022/03/16 06:00:28;;;;;;;70.13;38.08;;;4.90;99.90;;;;;;5093447;28;20576;-58
2022/03/16 06:02:54;;;;;;;76.43;38.33;;;4.90;99.90;;;;;;5092745;28;20127;-59
2022/03/16 06:05:20;;;;;;;72.63;37.85;;;4.90;99.90;;;;;;5093936;28;20051;-59
2022/03/16 06:07:45;;;;;;;75.68;38.65;;;4.90;99.90;;;;;;5093669;28;20109;-60
2022/03/16 06:10:15;;;;;;;68.25;37.80;;;4.90;99.90;;;;;;5093722;28;20036;-59
2022/03/16 06:12:50;;;;;;;72.75;37.97;;;4.90;99.90;;;;;;5093312;28;20048;-59
2022/03/16 06:15:16;;;;;;;70.47;37.40;;;5.00;99.90;;;;;;5093208;28;20046;-59
2022/03/16 06:17:42;;;;;;;77.80;37.30;;;5.00;99.90;;;;;;5093451;28;20036;-59
2022/03/16 06:20:08;;;;;;;67.07;36.90;;;5.00;99.90;;;;;;5093431;28;20036;-58
2022/03/16 06:22:33;;;;;;;68.28;37.33;;;5.00;99.90;;;;;;5091853;28;20581;-59
2022/03/16 06:24:59;;;;;;;58.60;36.80;;;5.10;99.90;;;;;;5091437;28;20131;-59
2022/03/16 06:27:25;;;;;;;63.88;35.53;;;5.10;99.90;;;;;;5093012;28;20039;-59
2022/03/16 06:29:50;;;;;;;63.05;36.70;;;5.20;99.90;;;;;;5092940;28;20481;-59
2022/03/16 06:32:16;;;;;;;54.97;35.08;;;5.20;99.90;;;;;;5093051;28;20040;-59
2022/03/16 06:34:41;;;;;;;61.38;35.20;;;5.20;99.90;;;;;;5092963;28;20040;-59
2022/03/16 06:37:07;;;;;;;59.78;34.90;;;5.30;99.90;;;;;;5091418;28;20048;-59
2022/03/16 06:39:33;;;;;;;60.95;35.55;;;5.30;99.90;;;;;;5092806;28;20078;-59
2022/03/16 06:41:58;;;;;;;61.80;34.75;;;5.30;99.90;;;;;;5092820;28;20048;-59
2022/03/16 06:44:24;;;;;;;61.92;36.25;;;5.40;99.90;;;;;;5092632;28;20047;-59
2022/03/16 06:46:51;;;;;;;60.95;36.20;;;5.40;99.90;;;;;;5092929;28;20047;-59
2022/03/16 06:49:16;;;;;;;59.35;36.95;;;5.40;99.90;;;;;;5092639;28;20109;-59
2022/03/16 06:51:42;;;;;;;61.97;34.38;;;5.40;99.90;;;;;;5092732;28;20478;-59
2022/03/16 06:54:13;;;;;;;63.67;35.08;;;5.40;99.90;;;;;;5092703;28;20040;-60
2022/03/16 06:56:42;;;;;;;60.05;36.50;;;5.40;99.90;;;;;;5091517;28;20044;-59
2022/03/16 06:59:07;;;;;;;62.85;36.38;;;5.50;99.90;;;;;;5092249;28;20097;-59
2022/03/16 07:01:33;;;;;;;63.30;34.38;;;5.50;99.90;;;;;;5089797;28;20098;-59
2022/03/16 07:03:58;;;;;;;66.07;36.58;;;5.50;99.90;;;;;;5092421;28;20036;-59
2022/03/16 07:06:24;;;;;;;65.07;36.20;;;5.50;99.90;;;;;;5092421;28;20040;-59
2022/03/16 07:08:50;;;;;;;60.83;35.38;;;5.50;99.90;;;;;;5092548;28;20078;-59
2022/03/16 07:11:18;;;;;;;56.88;36.25;;;5.50;99.90;;;;;;5092134;28;20557;-59
2022/03/16 07:14:30;;;;;;;56.40;33.22;;;5.60;99.90;;;;;;5092368;28;20803;-59
2022/03/16 07:16:30;;;;;;;58.35;34.78;;;5.60;99.90;;;;;;5090800;28;20040;-59
2022/03/16 07:18:56;;;;;;;59.47;33.53;;;5.70;99.90;;;;;;5092463;28;20036;-59
2022/03/16 07:21:21;;;;;;;61.40;34.60;;;5.70;99.90;;;;;;5092101;28;20040;-59
2022/03/16 07:23:47;;;;;;;54.58;33.92;;;5.80;99.90;;;;;;5091997;28;20051;-59
2022/03/16 07:26:12;;;;;;;60.97;34.17;;;5.70;99.90;;;;;;5091864;28;20393;-59
2022/03/16 07:28:38;;;;;;;59.83;33.92;;;5.80;99.90;;;;;;5091763;28;20050;-59
2022/03/16 07:31:04;;;;;;;52.90;33.38;;;5.90;99.90;;;;;;5091743;28;20054;-59
2022/03/16 07:33:30;;;;;;;50.50;33.08;;;6.00;99.90;;;;;;5090194;28;20048;-59
2022/03/16 07:35:56;;;;;;;58.80;35.83;;;6.10;99.90;;;;;;5091584;28;20036;-59
2022/03/16 07:38:22;;;;;;;57.47;35.00;;;6.20;99.90;;;;;;5091862;28;20494;-59
2022/03/16 07:40:47;;;;;;;50.97;33.03;;;6.20;99.90;;;;;;5092112;28;20087;-59
2022/03/16 07:43:14;;;;;;;57.78;34.03;;;6.20;99.90;;;;;;5091895;28;20040;-60
2022/03/16 07:45:40;;;;;;;60.17;34.13;;;6.30;99.90;;;;;;5091951;28;20035;-59
2022/03/16 07:48:06;;;;;;;55.15;32.42;;;6.40;99.90;;;;;;5090301;28;20048;-59
2022/03/16 07:50:33;;;;;;;60.85;33.92;;;6.50;99.90;;;;;;5091859;28;20143;-59
2022/03/16 07:52:59;;;;;;;50.78;31.98;;;6.60;99.90;;;;;;5091645;28;20122;-59
2022/03/16 07:55:25;;;;;;;48.17;31.70;;;6.70;99.90;;;;;;5091659;28;20126;-59
2022/03/16 07:57:52;;;;;;;47.38;31.55;;;6.80;99.90;;;;;;5092090;28;20036;-59
2022/03/16 08:00:18;;;;;;;49.63;31.45;;;6.90;99.90;;;;;;5090339;28;20052;-59
2022/03/16 08:02:44;;;;;;;52.55;31.67;;;7.00;99.90;;;;;;5091753;28;20537;-59
2022/03/16 08:05:10;;;;;;;52.90;32.35;;;7.10;99.90;;;;;;5091864;28;20044;-59
2022/03/16 08:07:36;;;;;;;49.42;32.00;;;7.20;99.90;;;;;;5091559;28;20436;-59
2022/03/16 08:10:02;;;;;;;49.33;30.63;;;7.30;99.90;;;;;;5091850;28;20040;-59
2022/03/16 08:12:28;;;;;;;46.30;30.50;;;7.40;99.90;;;;;;5092784;28;20036;-59
2022/03/16 08:14:54;;;;;;;46.10;29.85;;;7.50;99.90;;;;;;5095419;28;20113;-60
2022/03/16 08:17:20;;;;;;;44.08;29.73;;;7.60;99.90;;;;;;5095313;28;20036;-59
2022/03/16 08:19:45;;;;;;;50.47;30.23;;;7.70;99.90;;;;;;5095352;28;20039;-59
2022/03/16 08:22:11;;;;;;;49.22;29.73;;;7.90;99.90;;;;;;5095349;28;20044;-59
2022/03/16 08:24:37;;;;;;;43.80;27.73;;;7.90;99.90;;;;;;5095272;28;20049;-59
2022/03/16 08:27:03;;;;;;;41.58;28.67;;;8.00;99.90;;;;;;5095451;28;20088;-59
2022/03/16 08:29:28;;;;;;;48.22;28.23;;;8.10;99.90;;;;;;5095142;28;20379;-60
2022/03/16 08:31:54;;;;;;;42.28;28.60;;;8.20;99.90;;;;;;5095090;28;20036;-60
2022/03/16 08:34:20;;;;;;;38.75;26.75;;;8.40;99.90;;;;;;5095223;28;20036;-60
2022/03/16 08:36:46;;;;;;;35.65;25.90;;;8.50;99.90;;;;;;5094927;28;20044;-60
2022/03/16 08:39:11;;;;;;;39.20;26.52;;;8.80;99.90;;;;;;5095095;28;20036;-60
2022/03/16 08:41:37;;;;;;;38.25;27.08;;;9.10;99.90;;;;;;5095123;28;20078;-60
2022/03/16 08:44:03;;;;;;;35.28;26.90;;;9.30;99.90;;;;;;5095308;28;20475;-61
2022/03/16 08:46:30;;;;;;;33.50;24.40;;;9.60;99.90;;;;;;5095245;28;20109;-60
2022/03/16 08:48:56;;;;;;;34.38;24.30;;;9.70;99.90;;;;;;5095165;28;20044;-60
2022/03/16 08:51:22;;;;;;;35.58;24.58;;;10.00;99.90;;;;;;5094711;28;20105;-60
2022/03/16 08:53:49;;;;;;;38.78;26.42;;;10.10;99.90;;;;;;5094953;28;20036;-60
2022/03/16 08:56:16;;;;;;;38.28;23.73;;;10.30;99.90;;;;;;5093742;28;20039;-60
2022/03/16 08:58:41;;;;;;;34.55;25.08;;;10.40;99.90;;;;;;5094790;28;20070;-60
2022/03/16 09:01:07;;;;;;;31.60;22.88;;;10.80;99.90;;;;;;5094672;28;20133;-60
2022/03/16 09:03:34;;;;;;;31.75;22.77;;;11.10;99.90;;;;;;5094704;28;20473;-60
2022/03/16 09:06:00;;;;;;;34.33;24.58;;;11.30;99.90;;;;;;5094541;28;20068;-60
2022/03/16 09:08:25;;;;;;;29.38;20.85;;;11.40;99.90;;;;;;5094637;28;20113;-60
2022/03/16 09:10:51;;;;;;;34.17;23.02;;;11.50;99.90;;;;;;5094501;28;20047;-60
2022/03/16 09:13:19;;;;;;;31.15;21.95;;;11.80;99.90;;;;;;5094471;28;20047;-60
2022/03/16 09:15:45;;;;;;;33.28;24.08;;;11.90;99.90;;;;;;5094548;28;20040;-59
2022/03/16 09:18:13;;;;;;;39.80;23.38;;;12.10;99.90;;;;;;5094353;28;20028;-59
2022/03/16 09:20:39;;;;;;;34.92;23.15;;;12.40;99.90;;;;;;5094724;28;20462;-61
2022/03/16 09:23:04;;;;;;;34.55;21.63;;;12.60;99.90;;;;;;5094198;28;20043;-59
2022/03/16 09:25:30;;;;;;;60.03;35.22;;;12.70;99.90;;;;;;5093429;28;20036;-59
2022/03/16 09:27:56;;;;;;;46.70;27.02;;;12.80;99.90;;;;;;5094371;28;20036;-59
2022/03/16 09:30:23;;;;;;;38.70;23.80;;;13.10;99.90;;;;;;5094239;28;20071;-60
2022/03/16 09:32:49;;;;;;;31.33;21.52;;;13.00;99.90;;;;;;5094056;28;20089;-60
2022/03/16 09:35:15;;;;;;;31.08;22.63;;;13.00;99.90;;;;;;5093856;28;20040;-60
2022/03/16 09:37:42;;;;;;;32.65;22.38;;;12.90;99.90;;;;;;5108794;28;20048;-59
2022/03/16 09:40:08;;;;;;;34.35;22.75;;;13.00;99.90;;;;;;5094043;28;20101;-59
2022/03/16 09:42:34;;;;;;;31.40;22.00;;;13.00;99.90;;;;;;5093968;28;20076;-60
2022/03/16 09:45:03;;;;;;;34.05;22.63;;;13.20;99.90;;;;;;5093893;28;20071;-60
2022/03/16 09:47:30;;;;;;;32.80;22.17;;;13.30;99.90;;;;;;5093855;28;20054;-60
2022/03/16 09:49:56;;;;;;;26.98;20.15;;;13.30;99.90;;;;;;5093620;28;20473;-59
2022/03/16 09:52:23;;;;;;;25.80;21.13;;;13.40;99.90;;;;;;5093882;28;20079;-59
2022/03/16 09:54:50;;;;;;;27.33;19.05;;;13.50;99.90;;;;;;5093754;28;20391;-58
2022/03/16 09:57:16;;;;;;;24.58;17.48;;;13.50;99.90;;;;;;5108777;28;20044;-59
2022/03/16 09:59:42;;;;;;;27.70;18.58;;;13.60;99.90;;;;;;5093548;28;20038;-59
2022/03/16 10:02:14;;;;;;;26.48;18.58;;;13.40;99.90;;;;;;5075420;28;20446;-58
2022/03/16 10:04:41;;;;;;;25.23;16.85;;;13.40;99.90;;;;;;5093566;28;20040;-58
2022/03/16 10:07:07;;;;;;;23.75;17.02;;;13.30;99.90;;;;;;5093648;28;20040;-58
2022/03/16 10:15:18;;;;;;;24.65;17.50;;;13.80;99.90;;;;;;5093553;28;20040;-58
2022/03/16 10:18:02;;;;;;;21.52;16.10;;;14.10;99.90;;;;;;5093219;28;20553;-58
2022/03/16 10:20:39;;;;;;;20.85;14.75;;;14.20;99.90;;;;;;5093139;28;20115;-58
2022/03/16 10:23:10;;;;;;;19.52;14.30;;;14.00;99.90;;;;;;5093311;28;20055;-58
2022/03/16 10:25:51;;;;;;;20.30;14.05;;;13.80;99.90;;;;;;5093020;28;20048;-58
2022/03/16 10:28:18;;;;;;;18.45;13.98;;;13.90;99.90;;;;;;5093136;28;20040;-58
2022/03/16 10:30:55;;;;;;;21.17;14.65;;;13.90;99.90;;;;;;5092936;28;20036;-58
2022/03/16 10:33:23;;;;;;;19.45;14.07;;;14.20;99.90;;;;;;5092811;28;20036;-58
2022/03/16 10:36:00;;;;;;;17.92;13.55;;;14.20;99.90;;;;;;5092701;28;20036;-58
2022/03/16 10:38:27;;;;;;;18.42;13.80;;;14.10;99.90;;;;;;5092742;28;20063;-58
2022/03/16 10:46:48;;;;;;;23.25;13.10;;;14.30;99.90;;;;;;5092694;28;20505;-58
2022/03/16 10:49:17;;;;;;;17.75;13.32;;;14.30;99.90;;;;;;5092976;28;20371;-58
2022/03/16 10:51:44;;;;;;;16.00;13.10;;;14.40;99.90;;;;;;5092440;28;20557;-58
2022/03/16 10:54:14;;;;;;;17.45;13.00;;;14.30;99.90;;;;;;5092453;28;20111;-58
2022/03/16 10:56:40;;;;;;;18.00;12.95;;;14.20;99.90;;;;;;5092724;28;20040;-58
2022/03/16 10:59:07;;;;;;;15.38;12.07;;;14.20;99.90;;;;;;5092557;28;20047;-58
2022/03/16 11:01:38;;;;;;;14.68;10.65;;;14.10;99.90;;;;;;5092488;28;20569;-58
2022/03/16 11:04:04;;;;;;;13.35;9.65;;;14.10;99.90;;;;;;5092375;28;20401;-58
2022/03/16 11:06:31;;;;;;;19.77;11.35;;;14.00;99.90;;;;;;5092501;28;20054;-58
2022/03/16 11:08:57;;;;;;;12.20;10.38;;;14.10;99.90;;;;;;5092397;28;20048;-58
2022/03/16 11:14:08;;;;;;;13.85;10.68;;;14.30;99.90;;;;;;5092155;28;20474;-58
2022/03/16 11:16:34;;;;;;;16.65;11.27;;;14.40;99.90;;;;;;5090456;28;20066;-58
2022/03/16 11:19:03;;;;;;;14.18;10.20;;;14.40;99.90;;;;;;5092386;28;20107;-59
2022/03/16 11:21:33;;;;;;;;;;;14.40;99.90;;;;;;5092391;28;20191;-58
2022/03/16 11:24:17;;;;;;;14.60;11.50;;;14.30;99.90;;;;;;5090693;28;19920;-58
2022/03/16 11:27:22;;;;;;;15.35;11.68;;;14.40;99.90;;;;;;5092145;28;20040;-58
2022/03/16 11:30:06;;;;;;;17.75;12.93;;;14.40;99.90;;;;;;5091850;28;20055;-58
2022/03/16 11:32:43;;;;;;;15.07;11.68;;;14.60;99.90;;;;;;5092111;28;20050;-58
2022/03/16 11:35:12;;;;;;;17.30;12.50;;;14.70;99.90;;;;;;5091823;28;20501;-58
2022/03/16 11:37:51;;;;;;;17.40;12.25;;;14.80;99.90;;;;;;5092078;28;20559;-58
2022/03/16 11:40:20;;;;;;;16.55;12.25;;;14.80;99.90;;;;;;5091839;28;20058;-58
2022/03/16 11:43:04;;;;;;;15.65;11.70;;;14.90;99.90;;;;;;5092060;28;20115;-58
2022/03/16 11:45:41;;;;;;;17.58;12.63;;;15.20;99.90;;;;;;5090406;28;20135;-58
2022/03/16 11:48:28;;;;;;;17.88;12.05;;;15.30;99.90;;;;;;5091083;28;20043;-58
2022/03/16 11:51:09;;;;;;;20.67;12.55;;;15.40;99.90;;;;;;5092069;28;20079;-58
2022/03/16 11:56:36;;;;;;;15.20;11.98;;;15.50;99.90;;;;;;5091732;28;20040;-58
2022/03/16 11:59:34;;;;;;;19.50;13.27;;;15.60;99.90;;;;;;5091566;28;20062;-59
2022/03/16 12:02:24;;;;;;;14.73;11.93;;;15.80;99.90;;;;;;5090936;28;20067;-58
2022/03/16 12:04:53;;;;;;;16.15;11.38;;;15.80;99.90;;;;;;5091560;28;20044;-59
2022/03/16 12:07:22;;;;;;;16.15;12.05;;;16.00;99.90;;;;;;5091489;28;20028;-58
2022/03/16 12:09:54;;;;;;;19.25;11.90;;;16.20;99.90;;;;;;5091742;28;20475;-58
2022/03/16 12:15:11;;;;;;;13.73;11.35;;;16.30;99.90;;;;;;5091477;28;20044;-58
2022/03/16 12:18:04;;;;;;;13.77;11.25;;;16.40;99.90;;;;;;5091420;28;20043;-60
2022/03/16 12:20:37;;;;;;;17.33;11.52;;;16.40;99.90;;;;;;5091451;28;20052;-58
2022/03/16 12:23:11;;;;;;;12.65;10.27;;;16.50;99.90;;;;;;5091553;28;20036;-58
2022/03/16 12:25:42;;;;;;;14.65;11.23;;;16.70;99.90;;;;;;5091455;28;20040;-58
2022/03/16 12:31:15;;;;;;;15.13;10.70;;;16.60;99.90;;;;;;5091340;28;20055;-58
2022/03/16 12:33:53;;;;;;;15.15;11.25;;;16.90;99.90;;;;;;5091251;28;20395;-58
2022/03/16 12:36:26;;;;;;;17.25;11.20;;;16.70;99.90;;;;;;5091186;28;20048;-58
2022/03/16 12:38:58;;;;;;;15.23;10.45;;;16.80;99.90;;;;;;5091393;28;20044;-58
2022/03/16 12:44:11;;;;;;;14.48;10.13;;;16.70;99.90;;;;;;5091170;28;20478;-58
2022/03/16 12:47:18;;;;;;;15.13;10.87;;;17.00;99.90;;;;;;5091210;28;20498;-58
2022/03/16 12:49:46;;;;;;;14.48;10.90;;;16.90;99.90;;;;;;5009471;28;20068;-58
2022/03/16 12:52:12;;;;;;;14.38;10.60;;;16.60;99.90;;;;;;5009279;28;20054;-58
2022/03/16 12:54:40;;;;;;;15.60;11.27;;;16.70;99.90;;;;;;5009474;28;20181;-58
2022/03/16 12:57:16;;;;;;;14.18;10.52;;;16.60;99.90;;;;;;5009293;28;20045;-58
2022/03/16 12:59:52;;;;;;;15.38;11.98;;;16.70;99.90;;;;;;4993851;28;20049;-58
2022/03/16 13:02:24;;;;;;;17.85;12.48;;;16.60;99.90;;;;;;4996346;28;20076;-61